sensor_id;sensor_type;location;lat;lon;timestamp;temperature;humidity
47070;DHT22;32822;48.140;7.702;2023-12-20T20:23:04;20.50;51.70
47070;DHT22;32822;48.140;7.702;2023-12-20T20:25:30;20.80;50.40
47070;DHT22;32822;48.140;7.702;2023-12-20T20:29:07;20.80;50.40
47070;DHT22;32822;48.140;7.702;2023-12-20T20:31:33;20.70;50.40
47070;DHT22;32822;48.140;7.702;2023-12-20T20:34:00;20.70;50.50
47070;DHT22;32822;48.140;7.702;2023-12-20T20:38:35;19.80;41.00
47070;DHT22;32822;48.140;7.702;2023-12-20T20:41:01;16.00;42.00
47070;DHT22;32822;48.140;7.702;2023-12-20T20:43:26;13.30;46.10
47070;DHT22;32822;48.140;7.702;2023-12-20T20:45:52;11.20;49.60
47070;DHT22;32822;48.140;7.702;2023-12-20T20:48:18;9.50;53.70
47070;DHT22;32822;48.140;7.702;2023-12-20T20:50:44;8.50;56.10
47070;DHT22;32822;48.140;7.702;2023-12-20T20:53:09;7.90;57.70
47070;DHT22;32822;48.140;7.702;2023-12-20T20:55:35;7.40;58.90
47070;DHT22;32822;48.140;7.702;2023-12-20T20:58:00;7.10;59.80
47070;DHT22;32822;48.140;7.702;2023-12-20T21:00:26;6.80;60.70
47070;DHT22;32822;48.140;7.702;2023-12-20T21:02:51;6.70;61.40
47070;DHT22;32822;48.140;7.702;2023-12-20T21:05:17;6.60;61.90
47070;DHT22;32822;48.140;7.702;2023-12-20T21:07:42;6.50;62.30
47070;DHT22;32822;48.140;7.702;2023-12-20T21:10:10;6.50;62.70
47070;DHT22;32822;48.140;7.702;2023-12-20T21:12:35;6.40;63.10
47070;DHT22;32822;48.140;7.702;2023-12-20T21:15:02;6.40;63.30
47070;DHT22;32822;48.140;7.702;2023-12-20T21:17:28;6.30;63.40
47070;DHT22;32822;48.140;7.702;2023-12-20T21:19:53;6.30;63.90
47070;DHT22;32822;48.140;7.702;2023-12-20T21:22:19;6.30;63.80
47070;DHT22;32822;48.140;7.702;2023-12-20T21:24:44;6.20;63.80
47070;DHT22;32822;48.140;7.702;2023-12-20T21:27:10;6.20;64.00
47070;DHT22;32822;48.140;7.702;2023-12-20T21:29:35;6.20;64.30
47070;DHT22;32822;48.140;7.702;2023-12-20T21:32:01;6.20;64.20
47070;DHT22;32822;48.140;7.702;2023-12-20T21:34:27;6.20;64.30
47070;DHT22;32822;48.140;7.702;2023-12-20T21:36:52;6.20;64.50
47070;DHT22;32822;48.140;7.702;2023-12-20T21:39:20;6.20;64.70
47070;DHT22;32822;48.140;7.702;2023-12-20T21:41:46;6.20;64.90
47070;DHT22;32822;48.140;7.702;2023-12-20T21:44:12;6.20;64.70
47070;DHT22;32822;48.140;7.702;2023-12-20T21:46:37;6.20;64.70
47070;DHT22;32822;48.140;7.702;2023-12-20T21:49:05;6.20;64.80
47070;DHT22;32822;48.140;7.702;2023-12-20T21:51:31;6.20;64.90
47070;DHT22;32822;48.140;7.702;2023-12-20T21:53:58;6.20;65.00
47070;DHT22;32822;48.140;7.702;2023-12-20T21:56:28;6.20;64.90
47070;DHT22;32822;48.140;7.702;2023-12-20T21:58:53;6.10;65.10
47070;DHT22;32822;48.140;7.702;2023-12-20T22:01:19;6.10;65.00
47070;DHT22;32822;48.140;7.702;2023-12-20T22:03:44;6.10;65.10
47070;DHT22;32822;48.140;7.702;2023-12-20T22:06:10;6.20;65.20
47070;DHT22;32822;48.140;7.702;2023-12-20T22:08:36;6.10;65.10
47070;DHT22;32822;48.140;7.702;2023-12-20T22:11:01;6.10;65.10
47070;DHT22;32822;48.140;7.702;2023-12-20T22:13:27;6.10;65.00
47070;DHT22;32822;48.140;7.702;2023-12-20T22:15:59;6.20;65.00
47070;DHT22;32822;48.140;7.702;2023-12-20T22:18:24;6.20;64.70
47070;DHT22;32822;48.140;7.702;2023-12-20T22:20:50;6.10;64.70
47070;DHT22;32822;48.140;7.702;2023-12-20T22:23:16;6.10;64.80
47070;DHT22;32822;48.140;7.702;2023-12-20T22:25:42;6.10;64.90
47070;DHT22;32822;48.140;7.702;2023-12-20T22:28:07;6.20;64.80
47070;DHT22;32822;48.140;7.702;2023-12-20T22:30:33;6.10;64.80
47070;DHT22;32822;48.140;7.702;2023-12-20T22:32:58;6.20;65.00
47070;DHT22;32822;48.140;7.702;2023-12-20T22:35:24;6.20;65.10
47070;DHT22;32822;48.140;7.702;2023-12-20T22:37:51;6.20;65.00
47070;DHT22;32822;48.140;7.702;2023-12-20T22:40:17;6.20;65.00
47070;DHT22;32822;48.140;7.702;2023-12-20T22:42:43;6.20;65.10
47070;DHT22;32822;48.140;7.702;2023-12-20T22:45:09;6.20;64.90
47070;DHT22;32822;48.140;7.702;2023-12-20T22:47:35;6.20;64.90
47070;DHT22;32822;48.140;7.702;2023-12-20T22:50:00;6.20;64.80
47070;DHT22;32822;48.140;7.702;2023-12-20T22:52:27;6.20;65.00
47070;DHT22;32822;48.140;7.702;2023-12-20T22:54:52;6.20;65.20
47070;DHT22;32822;48.140;7.702;2023-12-20T22:57:18;6.20;65.40
47070;DHT22;32822;48.140;7.702;2023-12-20T22:59:43;6.10;65.20
47070;DHT22;32822;48.140;7.702;2023-12-20T23:02:09;6.20;65.40
47070;DHT22;32822;48.140;7.702;2023-12-20T23:04:37;6.20;65.40
47070;DHT22;32822;48.140;7.702;2023-12-20T23:07:03;6.20;65.50
47070;DHT22;32822;48.140;7.702;2023-12-20T23:09:29;6.10;65.60
47070;DHT22;32822;48.140;7.702;2023-12-20T23:11:54;6.20;65.90
47070;DHT22;32822;48.140;7.702;2023-12-20T23:14:20;6.20;65.90
47070;DHT22;32822;48.140;7.702;2023-12-20T23:16:46;6.20;65.90
47070;DHT22;32822;48.140;7.702;2023-12-20T23:19:11;6.10;65.80
47070;DHT22;32822;48.140;7.702;2023-12-20T23:21:37;6.20;66.20
47070;DHT22;32822;48.140;7.702;2023-12-20T23:24:03;6.20;66.20
47070;DHT22;32822;48.140;7.702;2023-12-20T23:26:28;6.20;66.30
47070;DHT22;32822;48.140;7.702;2023-12-20T23:28:54;6.10;66.50
47070;DHT22;32822;48.140;7.702;2023-12-20T23:31:23;6.10;66.40
47070;DHT22;32822;48.140;7.702;2023-12-20T23:33:50;6.10;66.30
47070;DHT22;32822;48.140;7.702;2023-12-20T23:36:15;6.10;66.60
47070;DHT22;32822;48.140;7.702;2023-12-20T23:38:41;6.10;66.50
47070;DHT22;32822;48.140;7.702;2023-12-20T23:41:06;6.20;66.60
47070;DHT22;32822;48.140;7.702;2023-12-20T23:43:32;6.10;66.50
47070;DHT22;32822;48.140;7.702;2023-12-20T23:45:57;6.10;66.70
47070;DHT22;32822;48.140;7.702;2023-12-20T23:48:23;6.10;66.80
47070;DHT22;32822;48.140;7.702;2023-12-20T23:50:48;6.20;66.80
47070;DHT22;32822;48.140;7.702;2023-12-20T23:53:15;6.20;67.00
47070;DHT22;32822;48.140;7.702;2023-12-20T23:55:41;6.20;67.10
47070;DHT22;32822;48.140;7.702;2023-12-20T23:58:07;6.20;67.10
